sensor_id;sensor_type;location;lat;lon;timestamp;P1;durP1;ratioP1;P2;durP2;ratioP2
64242;SDS011;50573;51.512;5.386;2023-11-19T00:06:03;15.20;;;7.38;;
64242;SDS011;50573;51.512;5.386;2023-11-19T00:16:08;11.53;;;6.57;;
64242;SDS011;50573;51.512;5.386;2023-11-19T00:26:11;15.18;;;6.78;;
64242;SDS011;50573;51.512;5.386;2023-11-19T00:36:21;13.38;;;4.80;;
64242;SDS011;50573;51.512;5.386;2023-11-19T00:46:25;12.77;;;4.18;;
64242;SDS011;50573;51.512;5.386;2023-11-19T00:56:30;19.80;;;5.00;;
64242;SDS011;50573;51.512;5.386;2023-11-19T01:06:33;16.25;;;4.68;;
64242;SDS011;50573;51.512;5.386;2023-11-19T01:16:38;21.65;;;4.07;;
64242;SDS011;50573;51.512;5.386;2023-11-19T01:36:48;18.77;;;5.30;;
64242;SDS011;50573;51.512;5.386;2023-11-19T01:46:51;19.38;;;4.50;;
64242;SDS011;50573;51.512;5.386;2023-11-19T01:56:56;18.57;;;4.70;;
64242;SDS011;50573;51.512;5.386;2023-11-19T02:07:00;24.05;;;5.10;;
64242;SDS011;50573;51.512;5.386;2023-11-19T02:17:04;29.10;;;5.97;;
64242;SDS011;50573;51.512;5.386;2023-11-19T02:27:08;26.88;;;5.82;;
64242;SDS011;50573;51.512;5.386;2023-11-19T02:37:20;29.92;;;5.78;;
64242;SDS011;50573;51.512;5.386;2023-11-19T02:47:23;32.50;;;6.28;;
64242;SDS011;50573;51.512;5.386;2023-11-19T02:57:31;36.75;;;6.90;;
64242;SDS011;50573;51.512;5.386;2023-11-19T03:07:35;33.22;;;6.68;;
64242;SDS011;50573;51.512;5.386;2023-11-19T03:17:40;37.63;;;6.17;;
64242;SDS011;50573;51.512;5.386;2023-11-19T03:27:44;39.53;;;6.18;;
64242;SDS011;50573;51.512;5.386;2023-11-19T03:37:48;39.45;;;6.20;;
64242;SDS011;50573;51.512;5.386;2023-11-19T03:47:52;45.35;;;7.45;;
64242;SDS011;50573;51.512;5.386;2023-11-19T03:57:56;47.97;;;8.65;;
64242;SDS011;50573;51.512;5.386;2023-11-19T04:18:04;53.65;;;8.02;;
64242;SDS011;50573;51.512;5.386;2023-11-19T04:38:12;63.95;;;9.90;;
64242;SDS011;50573;51.512;5.386;2023-11-19T04:48:15;43.65;;;7.78;;
64242;SDS011;50573;51.512;5.386;2023-11-19T04:58:20;50.42;;;8.48;;
64242;SDS011;50573;51.512;5.386;2023-11-19T05:08:23;52.40;;;7.65;;
64242;SDS011;50573;51.512;5.386;2023-11-19T05:18:28;52.75;;;8.27;;
64242;SDS011;50573;51.512;5.386;2023-11-19T05:28:31;55.13;;;8.93;;
64242;SDS011;50573;51.512;5.386;2023-11-19T05:38:35;40.42;;;6.70;;
64242;SDS011;50573;51.512;5.386;2023-11-19T05:58:43;53.88;;;9.13;;
64242;SDS011;50573;51.512;5.386;2023-11-19T06:08:46;53.42;;;8.38;;
64242;SDS011;50573;51.512;5.386;2023-11-19T06:18:51;51.50;;;7.53;;
64242;SDS011;50573;51.512;5.386;2023-11-19T06:28:55;52.80;;;7.25;;
64242;SDS011;50573;51.512;5.386;2023-11-19T06:38:59;44.83;;;8.38;;
64242;SDS011;50573;51.512;5.386;2023-11-19T06:49:02;57.92;;;8.25;;
64242;SDS011;50573;51.512;5.386;2023-11-19T06:59:07;57.53;;;8.43;;
64242;SDS011;50573;51.512;5.386;2023-11-19T07:19:14;55.10;;;8.98;;
64242;SDS011;50573;51.512;5.386;2023-11-19T07:29:17;55.40;;;8.52;;
64242;SDS011;50573;51.512;5.386;2023-11-19T07:39:24;57.83;;;7.72;;
64242;SDS011;50573;51.512;5.386;2023-11-19T07:49:27;68.38;;;10.23;;
64242;SDS011;50573;51.512;5.386;2023-11-19T07:59:33;52.38;;;7.75;;
64242;SDS011;50573;51.512;5.386;2023-11-19T08:09:36;55.28;;;9.23;;
64242;SDS011;50573;51.512;5.386;2023-11-19T08:19:41;59.00;;;7.88;;
64242;SDS011;50573;51.512;5.386;2023-11-19T08:29:44;50.80;;;9.40;;
64242;SDS011;50573;51.512;5.386;2023-11-19T08:39:48;51.33;;;10.52;;
64242;SDS011;50573;51.512;5.386;2023-11-19T08:49:52;50.80;;;9.00;;
64242;SDS011;50573;51.512;5.386;2023-11-19T09:00:00;58.33;;;9.32;;
64242;SDS011;50573;51.512;5.386;2023-11-19T09:10:04;42.92;;;7.97;;
64242;SDS011;50573;51.512;5.386;2023-11-19T09:20:12;59.15;;;9.80;;
64242;SDS011;50573;51.512;5.386;2023-11-19T09:30:21;49.15;;;8.60;;
64242;SDS011;50573;51.512;5.386;2023-11-19T09:40:25;46.83;;;8.48;;
64242;SDS011;50573;51.512;5.386;2023-11-19T09:50:29;44.67;;;7.95;;
64242;SDS011;50573;51.512;5.386;2023-11-19T10:00:38;48.65;;;8.52;;
64242;SDS011;50573;51.512;5.386;2023-11-19T10:10:44;40.78;;;7.32;;
64242;SDS011;50573;51.512;5.386;2023-11-19T10:20:48;43.42;;;7.78;;
64242;SDS011;50573;51.512;5.386;2023-11-19T10:30:55;36.78;;;7.18;;
64242;SDS011;50573;51.512;5.386;2023-11-19T10:41:00;36.58;;;7.22;;
64242;SDS011;50573;51.512;5.386;2023-11-19T11:01:11;45.25;;;6.82;;
64242;SDS011;50573;51.512;5.386;2023-11-19T11:11:19;34.40;;;7.05;;
64242;SDS011;50573;51.512;5.386;2023-11-19T11:21:24;36.97;;;7.63;;
64242;SDS011;50573;51.512;5.386;2023-11-19T11:31:31;35.75;;;6.63;;
64242;SDS011;50573;51.512;5.386;2023-11-19T11:41:43;41.17;;;6.93;;
64242;SDS011;50573;51.512;5.386;2023-11-19T11:52:02;33.55;;;6.85;;
64242;SDS011;50573;51.512;5.386;2023-11-19T12:02:11;28.42;;;5.00;;
64242;SDS011;50573;51.512;5.386;2023-11-19T12:12:19;32.42;;;6.55;;
64242;SDS011;50573;51.512;5.386;2023-11-19T12:22:26;35.17;;;6.07;;
64242;SDS011;50573;51.512;5.386;2023-11-19T12:32:37;42.25;;;6.97;;
64242;SDS011;50573;51.512;5.386;2023-11-19T12:42:43;25.42;;;5.38;;
64242;SDS011;50573;51.512;5.386;2023-11-19T12:52:54;45.60;;;6.90;;
64242;SDS011;50573;51.512;5.386;2023-11-19T13:03:02;42.88;;;6.68;;
64242;SDS011;50573;51.512;5.386;2023-11-19T13:13:06;33.47;;;5.45;;
64242;SDS011;50573;51.512;5.386;2023-11-19T13:23:12;36.50;;;5.90;;
64242;SDS011;50573;51.512;5.386;2023-11-19T13:33:18;35.38;;;6.22;;
64242;SDS011;50573;51.512;5.386;2023-11-19T13:43:22;28.13;;;5.32;;
64242;SDS011;50573;51.512;5.386;2023-11-19T13:53:26;24.77;;;4.70;;
64242;SDS011;50573;51.512;5.386;2023-11-19T14:03:30;33.90;;;6.10;;
64242;SDS011;50573;51.512;5.386;2023-11-19T14:13:35;37.03;;;6.10;;
64242;SDS011;50573;51.512;5.386;2023-11-19T14:23:39;29.10;;;6.07;;
64242;SDS011;50573;51.512;5.386;2023-11-19T14:33:42;29.67;;;5.45;;
64242;SDS011;50573;51.512;5.386;2023-11-19T14:43:47;31.27;;;6.18;;
64242;SDS011;50573;51.512;5.386;2023-11-19T14:53:50;25.00;;;5.80;;
64242;SDS011;50573;51.512;5.386;2023-11-19T15:03:54;34.78;;;6.30;;
64242;SDS011;50573;51.512;5.386;2023-11-19T15:14:02;38.17;;;6.25;;
64242;SDS011;50573;51.512;5.386;2023-11-19T15:24:08;37.90;;;6.07;;
64242;SDS011;50573;51.512;5.386;2023-11-19T15:34:12;36.13;;;6.32;;
64242;SDS011;50573;51.512;5.386;2023-11-19T15:44:16;25.95;;;5.45;;
64242;SDS011;50573;51.512;5.386;2023-11-19T15:54:19;32.45;;;5.50;;
64242;SDS011;50573;51.512;5.386;2023-11-19T16:04:24;36.92;;;7.00;;
64242;SDS011;50573;51.512;5.386;2023-11-19T16:14:27;27.33;;;5.43;;
64242;SDS011;50573;51.512;5.386;2023-11-19T16:24:31;25.65;;;5.25;;
64242;SDS011;50573;51.512;5.386;2023-11-19T16:34:34;39.22;;;5.65;;
64242;SDS011;50573;51.512;5.386;2023-11-19T16:44:45;35.80;;;6.07;;
64242;SDS011;50573;51.512;5.386;2023-11-19T16:54:48;35.50;;;7.20;;
64242;SDS011;50573;51.512;5.386;2023-11-19T17:04:52;36.17;;;5.68;;
64242;SDS011;50573;51.512;5.386;2023-11-19T17:14:55;31.20;;;5.22;;
64242;SDS011;50573;51.512;5.386;2023-11-19T17:25:07;31.92;;;6.07;;
64242;SDS011;50573;51.512;5.386;2023-11-19T17:35:11;34.67;;;6.57;;
64242;SDS011;50573;51.512;5.386;2023-11-19T17:45:15;27.98;;;4.97;;
64242;SDS011;50573;51.512;5.386;2023-11-19T17:55:18;33.65;;;6.03;;
64242;SDS011;50573;51.512;5.386;2023-11-19T18:05:26;29.77;;;5.93;;
64242;SDS011;50573;51.512;5.386;2023-11-19T18:15:30;33.03;;;7.28;;
64242;SDS011;50573;51.512;5.386;2023-11-19T18:25:38;25.92;;;4.38;;
64242;SDS011;50573;51.512;5.386;2023-11-19T18:35:41;26.30;;;5.05;;
64242;SDS011;50573;51.512;5.386;2023-11-19T18:45:46;22.50;;;3.90;;
64242;SDS011;50573;51.512;5.386;2023-11-19T18:55:49;17.05;;;3.80;;
64242;SDS011;50573;51.512;5.386;2023-11-19T19:05:53;21.40;;;4.25;;
64242;SDS011;50573;51.512;5.386;2023-11-19T19:15:56;19.38;;;5.18;;
64242;SDS011;50573;51.512;5.386;2023-11-19T19:26:01;28.60;;;4.82;;
64242;SDS011;50573;51.512;5.386;2023-11-19T19:36:06;23.98;;;4.95;;
64242;SDS011;50573;51.512;5.386;2023-11-19T19:46:12;23.40;;;4.85;;
64242;SDS011;50573;51.512;5.386;2023-11-19T19:56:15;30.92;;;5.53;;
64242;SDS011;50573;51.512;5.386;2023-11-19T20:06:19;29.75;;;5.95;;
64242;SDS011;50573;51.512;5.386;2023-11-19T20:16:26;19.98;;;4.90;;
64242;SDS011;50573;51.512;5.386;2023-11-19T20:26:31;26.95;;;5.07;;
64242;SDS011;50573;51.512;5.386;2023-11-19T20:36:34;25.10;;;4.68;;
64242;SDS011;50573;51.512;5.386;2023-11-19T20:46:38;20.15;;;4.10;;
64242;SDS011;50573;51.512;5.386;2023-11-19T20:56:41;24.17;;;4.60;;
64242;SDS011;50573;51.512;5.386;2023-11-19T21:06:46;26.25;;;5.00;;
64242;SDS011;50573;51.512;5.386;2023-11-19T21:16:52;27.48;;;4.22;;
64242;SDS011;50573;51.512;5.386;2023-11-19T21:26:56;22.40;;;4.30;;
64242;SDS011;50573;51.512;5.386;2023-11-19T21:36:59;20.52;;;3.95;;
64242;SDS011;50573;51.512;5.386;2023-11-19T21:47:04;20.15;;;4.53;;
64242;SDS011;50573;51.512;5.386;2023-11-19T21:57:08;20.00;;;4.03;;
64242;SDS011;50573;51.512;5.386;2023-11-19T22:07:12;19.85;;;4.70;;
64242;SDS011;50573;51.512;5.386;2023-11-19T22:17:16;19.17;;;4.22;;
64242;SDS011;50573;51.512;5.386;2023-11-19T22:27:20;23.75;;;5.25;;
64242;SDS011;50573;51.512;5.386;2023-11-19T22:37:23;22.52;;;5.00;;
64242;SDS011;50573;51.512;5.386;2023-11-19T22:47:28;17.98;;;4.35;;
64242;SDS011;50573;51.512;5.386;2023-11-19T22:57:31;22.95;;;4.68;;
64242;SDS011;50573;51.512;5.386;2023-11-19T23:07:36;31.35;;;6.53;;
64242;SDS011;50573;51.512;5.386;2023-11-19T23:17:39;33.05;;;6.63;;
64242;SDS011;50573;51.512;5.386;2023-11-19T23:27:43;24.35;;;4.70;;
64242;SDS011;50573;51.512;5.386;2023-11-19T23:37:46;23.55;;;4.45;;
64242;SDS011;50573;51.512;5.386;2023-11-19T23:47:51;22.02;;;5.25;;
64242;SDS011;50573;51.512;5.386;2023-11-19T23:57:54;23.55;;;5.28;;
